Flight Track Log - Related Links

Times and Time Zones

All times are in EDT time to prevent confusion due to time zone crossing. See the SWA2854 flight status page for this flight to view local times or setup timezone preferences in your user account.

Time Position Orientation Groundspeed Altitude Reporting Facility
EDT Latitude Longitude Course Direction KTS MPH feet Rate Location/Type
Fri 11:55:27 PM 34.0556 -117.6272 289° West 146 168 2,400  Level Los Angeles Center
Fri 11:56:29 PM 34.0731 -117.6878 289° West 192 221 4,900 3,145 Climbing Los Angeles Center
Fri 11:57:31 PM 34.1039 -117.7481 302° West 209 241 8,900 3,122 Climbing Los Angeles Center
Fri 11:58:32 PM 34.1414 -117.8181 303° West 250 288 11,300 2,585 Climbing Los Angeles Center
Fri 11:59:34 PM 34.1897 -117.9058 304° West 303 349 14,200 2,758 Climbing Los Angeles Center
Sat 12:00:36 AM 34.2536 -118.0258 303° West 347 399 17,000 2,293 Climbing Los Angeles Center
Sat 12:01:37 AM 34.3108 -118.1275 304° West 362 417 18,900 2,293 Climbing Los Angeles Center
Sat 12:02:39 AM 34.3775 -118.2269 309° West 379 436 21,700 2,049 Climbing Los Angeles Center
Sat 12:03:40 AM 34.4472 -118.3317 309° West 399 459 23,100 1,073 Climbing Los Angeles Center
Sat 12:04:42 AM 34.5172 -118.4339 310° West 397 457 23,900 1,839 Climbing Los Angeles Center
Sat 12:05:44 AM 34.5858 -118.5378 309° West 396 456 26,900 3,024 Climbing Los Angeles Center
Sat 12:06:45 AM 34.6692 -118.6633 309° West 398 458 30,100 2,829 Climbing Los Angeles Center
Sat 12:07:47 AM 34.7381 -118.7650 310° West 397 457 32,700 2,274 Climbing Los Angeles Center
Sat 12:08:49 AM 34.8094 -118.8658 311° West 395 455 34,800 2,000 Climbing Los Angeles Center
Sat 12:09:50 AM 34.9022 -118.9400 327° Northwest 403 464 36,800 1,561 Climbing Los Angeles Center
Sat 12:10:52 AM 34.9942 -119.0153 326° Northwest 403 464 38,000 581 Climbing Los Angeles Center
Sat 12:11:54 AM 35.0836 -119.0931 325° Northwest 402 463 38,000  Level Los Angeles Center
Sat 12:12:55 AM 35.1778 -119.1675 327° Northwest 401 461 38,000  Level Los Angeles Center
Sat 12:13:57 AM 35.3017 -119.2353 336° Northwest 410 472 38,000  Level Los Angeles Center
Sat 12:14:58 AM 35.3894 -119.3056 327° Northwest 394 453 38,000  Level Los Angeles Center
Sat 12:16:00 AM 35.4286 -119.4219 292° West 370 426 38,000  Level Los Angeles Center
Sat 12:17:02 AM 35.4725 -119.5375 295° West 372 428 38,000  Level Los Angeles Center
Sat 12:18:03 AM 35.5142 -119.6544 294° West 372 428 38,000  Level Los Angeles Center
Sat 12:19:05 AM 35.5547 -119.7719 293° West 374 430 38,000  Level Los Angeles Center
Sat 12:20:07 AM 35.6033 -119.9108 293° West 371 427 38,000  Level Los Angeles Center
Sat 12:21:08 AM 35.6450 -120.0278 294° West 377 434 38,000  Level Los Angeles Center
Sat 12:21:40 AM 35.6611 -120.0744 293° West 376 433 38,000  Level Oakland Center
Sat 12:22:41 AM 35.7106 -120.2167 293° West 378 435 38,000  Level Oakland Center
Sat 12:23:42 AM 35.7506 -120.3333 293° West 378 435 38,000  Level Oakland Center
Sat 12:24:43 AM 35.7914 -120.4514 293° West 378 435 38,000  Level Oakland Center
Sat 12:25:45 AM 35.8308 -120.5703 292° West 378 435 38,000 -439 Level Oakland Center
Sat 12:26:46 AM 35.8717 -120.6872 293° West 378 435 37,100 -885 Descending Oakland Center
Sat 12:27:47 AM 35.9114 -120.8047 293° West 376 433 36,200 -984 Descending Oakland Center
Sat 12:28:48 AM 35.9519 -120.9228 293° West 376 433 35,100 -2,016 Descending Oakland Center
Sat 12:29:49 AM 36.0067 -121.0319 302° West 393 452 32,100 -2,705 Descending Oakland Center
Sat 12:30:50 AM 36.0989 -121.1114 325° Northwest 407 468 29,600 -2,634 Descending Oakland Center
Sat 12:31:52 AM 36.2067 -121.2058 325° Northwest 401 461 26,700 -2,585 Descending Oakland Center
Sat 12:32:53 AM 36.2956 -121.2814 326° Northwest 392 451 24,300 -2,607 Descending Oakland Center
Sat 12:33:54 AM 36.3797 -121.3556 325° Northwest 377 434 21,400 -2,754 Descending Oakland Center
Sat 12:34:55 AM 36.4678 -121.4300 326° Northwest 381 438 18,700 -2,607 Descending Oakland Center
Sat 12:35:56 AM 36.5703 -121.4581 348° North 376 433 16,100 -1,756 Descending Oakland Center
Sat 12:36:58 AM 36.6681 -121.4794 350° North 364 419 15,100 -1,268 Descending Oakland Center
Sat 12:37:59 AM 36.7536 -121.4992 350° North 325 374 13,500 -1,672 Descending Oakland Center
Sat 12:39:00 AM 36.8472 -121.5244 348° North 309 356 11,700 -1,672 Descending Oakland Center
Sat 12:40:01 AM 36.9283 -121.5428 350° North 301 346 10,100 -1,770 Descending Oakland Center
Sat 12:41:02 AM 37.0064 -121.5614 349° North 293 337 8,100 -1,033 Descending Oakland Center
Sat 12:42:03 AM 37.0694 -121.5953 337° Northwest 264 304 8,000 -341 Descending Oakland Center
Sat 12:43:05 AM 37.1164 -121.6558 314° West 235 270 7,400 -780 Descending Oakland Center
Sat 12:44:06 AM 37.1567 -121.7056 315° West 206 237 6,400 -1,131 Descending Oakland Center
Sat 12:45:07 AM 37.1933 -121.7489 317° Northwest 196 226 5,100 -1,377 Descending Oakland Center
Sat 12:46:08 AM 37.2322 -121.7906 320° Northwest 192 221 3,600 -1,426 Descending Oakland Center
Sat 12:47:09 AM 37.2703 -121.8319 319° Northwest 187 215 2,200 -1,082 Descending Oakland Center
Sat 12:48:10 AM 37.3036 -121.8678 319° Northwest 172 198 1,400 -780 Descending Oakland Center
Sat 12:49:12 AM 37.3353 -121.9036 318° Northwest 144 166 600 -774 Descending Oakland Center
Sat 12:52:00 AM 37.3500 -121.9167 North  Level FlightAware Approximate

Login

Don't have an account? Register now (free) for customized features, flight alerts, and more!